createdAt,value
2023-02-23T00:00:14.933Z,101270.27
2023-02-23T00:02:49.783Z,101271.27
2023-02-23T00:05:35.597Z,101269.17
2023-02-23T00:08:06.493Z,101276.16
2023-02-23T00:10:36.495Z,101275.11
2023-02-23T00:13:06.135Z,101278.63
2023-02-23T00:15:40.804Z,101286.25
2023-02-23T00:18:14.998Z,101284.32
2023-02-23T00:20:45.141Z,101288.55
2023-02-23T00:23:38.189Z,101291.04
2023-02-23T00:26:08.538Z,101296.25
2023-02-23T00:28:48.879Z,101296.73
2023-02-23T00:31:26.847Z,101304.35
2023-02-23T00:33:59.979Z,101311.12
2023-02-23T00:36:55.627Z,101306.27
2023-02-23T00:39:30.818Z,101310.67
2023-02-23T00:42:03.915Z,101316.63
2023-02-23T00:44:34.235Z,101313.31
2023-02-23T00:47:05.533Z,101319.98
2023-02-23T00:49:37.902Z,101321.67
2023-02-23T00:52:06.950Z,101322.67
2023-02-23T00:54:37.522Z,101321.95
2023-02-23T00:57:26.670Z,101328.39
2023-02-23T01:00:00.090Z,101331.95
2023-02-23T01:02:31.828Z,101334.09
2023-02-23T01:05:06.511Z,101338.94
2023-02-23T01:07:56.863Z,101341.40
2023-02-23T01:10:27.604Z,101340.81
2023-02-23T01:12:59.584Z,101346.20
2023-02-23T01:15:28.599Z,101348.05
2023-02-23T01:17:59.458Z,101350.20
2023-02-23T01:20:54.537Z,101354.46
2023-02-23T01:23:43.603Z,101352.77
2023-02-23T01:26:23.262Z,101354.64
2023-02-23T01:28:56.581Z,101356.88
2023-02-23T01:31:30.012Z,101358.33
2023-02-23T01:34:01.827Z,101358.44
2023-02-23T01:36:39.484Z,101361.09
2023-02-23T01:39:12.686Z,101366.69
2023-02-23T01:41:44.995Z,101364.02
2023-02-23T01:44:16.428Z,101367.70
2023-02-23T01:46:49.791Z,101366.41
2023-02-23T01:49:21.447Z,101368.86
2023-02-23T01:52:12.292Z,101377.33
2023-02-23T01:54:45.779Z,101373.36
2023-02-23T01:57:15.300Z,101380.46
2023-02-23T01:59:49.672Z,101383.11
2023-02-23T02:02:20.873Z,101386.76
2023-02-23T02:04:52.740Z,101388.21
2023-02-23T02:07:28.319Z,101392.34
2023-02-23T02:10:11.854Z,101392.80
2023-02-23T02:12:48.552Z,101393.58
2023-02-23T02:15:34.273Z,101398.30
2023-02-23T02:18:19.432Z,101403.51
2023-02-23T02:21:05.381Z,101409.27
2023-02-23T02:24:06.269Z,101409.04
2023-02-23T02:27:06.016Z,101415.26
2023-02-23T02:30:14.258Z,101421.90
2023-02-23T02:32:47.547Z,101426.89
2023-02-23T02:35:26.253Z,101425.55
2023-02-23T02:38:32.436Z,101430.04
2023-02-23T02:41:41.858Z,101431.38
2023-02-23T02:44:28.460Z,101433.70
2023-02-23T02:47:05.818Z,101440.50
2023-02-23T02:49:49.581Z,101441.62
2023-02-23T02:52:24.607Z,101442.84
2023-02-23T02:54:56.994Z,101437.33
2023-02-23T02:57:27.718Z,101447.56
2023-02-23T03:00:24.481Z,101449.23
2023-02-23T03:03:13.217Z,101446.30
2023-02-23T03:06:04.817Z,101454.80
2023-02-23T03:09:08.179Z,101456.16
2023-02-23T03:12:00.490Z,101456.00
2023-02-23T03:14:54.803Z,101457.95
2023-02-23T03:17:53.017Z,101463.31
2023-02-23T03:21:02.004Z,101470.25
2023-02-23T03:23:59.044Z,101475.63
2023-02-23T03:27:08.892Z,101478.02
2023-02-23T03:30:02.444Z,101484.34
2023-02-23T03:33:20.851Z,101483.75
2023-02-23T03:36:17.120Z,101486.30
2023-02-23T03:39:32.709Z,101491.21
2023-02-23T03:42:21.363Z,101493.60
2023-02-23T03:45:10.864Z,101489.11
2023-02-23T03:47:59.604Z,101495.28
2023-02-23T03:51:05.148Z,101496.79
2023-02-23T03:53:59.733Z,101498.83
2023-02-23T03:56:47.589Z,101503.73
2023-02-23T03:59:35.613Z,101503.27
2023-02-23T04:02:22.938Z,101500.67
2023-02-23T04:05:11.292Z,101501.63
2023-02-23T04:07:59.482Z,101513.88
2023-02-23T04:10:47.114Z,101514.84
2023-02-23T04:13:19.756Z,101515.27
2023-02-23T04:16:02.365Z,101516.05
2023-02-23T04:18:34.430Z,101519.23
2023-02-23T04:21:03.174Z,101522.36
2023-02-23T04:23:32.456Z,101521.02
2023-02-23T04:26:04.052Z,101522.83
2023-02-23T04:28:35.499Z,101527.30
2023-02-23T04:31:04.751Z,101533.02
2023-02-23T04:33:34.974Z,101529.83
2023-02-23T04:36:03.769Z,101536.27
2023-02-23T04:38:43.465Z,101541.98
2023-02-23T04:41:11.957Z,101542.45
2023-02-23T04:43:42.019Z,101543.02
2023-02-23T04:46:11.023Z,101548.98
2023-02-23T04:48:39.790Z,101555.73
2023-02-23T04:51:09.031Z,101560.06
2023-02-23T04:53:38.443Z,101564.05
2023-02-23T04:56:08.005Z,101566.52
2023-02-23T04:58:36.853Z,101567.89
2023-02-23T05:01:11.240Z,101573.77
2023-02-23T05:03:40.453Z,101578.58
2023-02-23T05:06:09.969Z,101580.98
2023-02-23T05:08:38.647Z,101586.84
2023-02-23T05:11:09.063Z,101592.00
2023-02-23T05:13:40.691Z,101596.69
2023-02-23T05:16:09.581Z,101603.66
2023-02-23T05:18:39.731Z,101605.52
2023-02-23T05:21:14.762Z,101612.98
2023-02-23T05:23:45.874Z,101622.66
2023-02-23T05:29:37.825Z,101630.15
2023-02-23T05:35:16.075Z,101635.05
2023-02-23T05:37:45.864Z,101637.21
2023-02-23T05:40:44.431Z,101639.77
2023-02-23T05:59:23.685Z,101659.66
2023-02-23T06:01:56.070Z,101659.04
2023-02-23T06:07:59.915Z,101671.35
2023-02-23T06:11:07.947Z,101672.89
2023-02-23T06:17:22.408Z,101678.64
2023-02-23T06:20:22.031Z,101674.64
2023-02-23T06:23:05.836Z,101668.88
2023-02-23T06:25:39.373Z,101663.92
2023-02-23T06:28:16.546Z,101672.65
2023-02-23T06:30:53.041Z,101675.77
2023-02-23T06:33:22.634Z,101679.47
2023-02-23T06:36:01.900Z,101671.97
2023-02-23T06:38:54.726Z,101676.52
2023-02-23T07:02:17.258Z,101688.02
2023-02-23T07:05:11.201Z,101686.70
2023-02-23T09:50:02.013Z,101772.85
2023-02-23T11:40:42.631Z,101758.45
2023-02-23T12:43:33.292Z,101761.68
2023-02-23T12:47:41.282Z,101765.53
2023-02-23T14:21:40.731Z,101824.73
2023-02-23T23:42:05.104Z,101877.58
2023-02-23T23:44:37.359Z,101867.45
2023-02-23T23:47:18.094Z,101864.61
2023-02-23T23:50:13.062Z,101866.30
2023-02-23T23:53:07.896Z,101857.41
2023-02-23T23:56:01.924Z,101861.04
2023-02-23T23:58:40.629Z,101857.98
